LRQ156F ELLX-LQSA
Flight info
| Callsign | LRQ156F |
|---|---|
| Flight time | 1h 33m |
| Altitude | 13000 |
| Route | GTQ R7 STR/N0395F190 R7 LUPEN/N0467F370 UM164 UTABA L607 MOMUK DCT UMVEG DCT VEKEN DCT NEMEK DCT ELTIB DCT BOSNA |
| Aircraft | CL60/M-SBDE1E2E3FGHIJ4J5J7M3RWXYZ/LB1V1D1 |
Departure
| Time | 2026-04-23 19:45 |
|---|---|
| Airport | Luxembourg-Findel International Airport (ELLX) |
Arrival
| Time | 2026-04-23 21:19 |
|---|---|
| Airport | Sarajevo International Airport (LQSA) |
| Time | Latitude | Longitude | Altitude | Speed | Heading |
|---|---|---|---|---|---|
| 2026-04-23 19:30 | 49.62442 | 6.19755 | 1205 ft | 0 kts | 232° |
| 2026-04-23 19:42 | 49.62434 | 6.19739 | 1205 ft | 3 kts | 227° |
| 2026-04-23 19:42 | 49.62412 | 6.19734 | 1205 ft | 2 kts | 148° |
| 2026-04-23 19:43 | 49.62407 | 6.19739 | 1205 ft | 0 kts | 144° |
| 2026-04-23 19:43 | 49.62386 | 6.19763 | 1205 ft | 7 kts | 144° |
| 2026-04-23 19:43 | 49.62355 | 6.19798 | 1205 ft | 1 kts | 143° |
| 2026-04-23 19:43 | 49.62337 | 6.19812 | 1205 ft | 5 kts | 167° |
| 2026-04-23 19:44 | 49.62294 | 6.19736 | 1203 ft | 14 kts | 240° |
| 2026-04-23 19:44 | 49.62239 | 6.19591 | 1195 ft | 17 kts | 239° |
| 2026-04-23 19:44 | 49.62165 | 6.19573 | 1194 ft | 13 kts | 152° |
| 2026-04-23 19:44 | 49.62103 | 6.19645 | 1195 ft | 10 kts | 98° |
| 2026-04-23 19:45 | 49.62119 | 6.19730 | 1198 ft | 8 kts | 64° |
| 2026-04-23 19:45 | 49.62265 | 6.20126 | 1215 ft | 92 kts | 61° |
| 2026-04-23 19:45 | 49.62708 | 6.21353 | 1425 ft | 156 kts | 61° |
| 2026-04-23 19:45 | 49.63250 | 6.22907 | 2224 ft | 173 kts | 59° |
| 2026-04-23 19:46 | 49.63806 | 6.24561 | 3208 ft | 183 kts | 67° |
| 2026-04-23 19:46 | 49.64107 | 6.26454 | 4319 ft | 193 kts | 80° |
| 2026-04-23 19:46 | 49.64113 | 6.28595 | 5321 ft | 214 kts | 94° |
| 2026-04-23 19:46 | 49.63686 | 6.30908 | 6136 ft | 246 kts | 113° |
| 2026-04-23 19:47 | 49.62528 | 6.33037 | 6908 ft | 276 kts | 140° |
| 2026-04-23 19:47 | 49.60917 | 6.34695 | 7653 ft | 284 kts | 144° |
| 2026-04-23 19:47 | 49.59255 | 6.36364 | 8402 ft | 285 kts | 143° |
| 2026-04-23 19:47 | 49.57590 | 6.38043 | 9025 ft | 291 kts | 143° |
| 2026-04-23 19:48 | 49.55895 | 6.39731 | 9268 ft | 293 kts | 147° |
| 2026-04-23 19:48 | 49.53998 | 6.41151 | 9603 ft | 315 kts | 153° |
| 2026-04-23 19:48 | 49.52065 | 6.42654 | 10962 ft | 315 kts | 143° |
| 2026-04-23 19:48 | 49.50255 | 6.44786 | 11624 ft | 340 kts | 137° |
| 2026-04-23 19:49 | 49.48381 | 6.47153 | 12386 ft | 358 kts | 137° |
| 2026-04-23 19:49 | 49.46440 | 6.49583 | 13335 ft | 368 kts | 137° |
| 2026-04-23 19:49 | 49.44458 | 6.52056 | 14341 ft | 375 kts | 138° |
| 2026-04-23 19:49 | 49.42401 | 6.54617 | 14987 ft | 384 kts | 138° |
| 2026-04-23 19:50 | 49.40310 | 6.57212 | 15259 ft | 385 kts | 138° |
| 2026-04-23 19:50 | 49.38221 | 6.59795 | 15302 ft | 384 kts | 138° |
| 2026-04-23 19:50 | 49.36153 | 6.62347 | 15286 ft | 380 kts | 138° |
| 2026-04-23 19:50 | 49.34119 | 6.64853 | 15298 ft | 379 kts | 138° |
| 2026-04-23 19:51 | 49.32033 | 6.67418 | 15281 ft | 379 kts | 139° |
| 2026-04-23 19:51 | 49.30004 | 6.69911 | 15281 ft | 379 kts | 139° |
| 2026-04-23 19:51 | 49.27935 | 6.72447 | 15277 ft | 379 kts | 139° |
| 2026-04-23 19:51 | 49.25864 | 6.74984 | 15285 ft | 378 kts | 139° |
| 2026-04-23 19:52 | 49.23840 | 6.77457 | 15656 ft | 372 kts | 139° |
| 2026-04-23 19:52 | 49.21807 | 6.79939 | 16157 ft | 376 kts | 139° |
| 2026-04-23 19:52 | 49.19745 | 6.82456 | 16659 ft | 383 kts | 139° |
| 2026-04-23 19:52 | 49.17644 | 6.85017 | 17167 ft | 386 kts | 139° |
| 2026-04-23 19:53 | 49.15550 | 6.87564 | 17726 ft | 387 kts | 139° |
| 2026-04-23 19:53 | 49.13460 | 6.90102 | 18341 ft | 389 kts | 139° |
| 2026-04-23 19:53 | 49.11319 | 6.92702 | 18975 ft | 392 kts | 139° |
| 2026-04-23 19:53 | 49.09204 | 6.95264 | 19605 ft | 394 kts | 139° |
| 2026-04-23 19:54 | 49.07068 | 6.97849 | 20247 ft | 396 kts | 139° |
| 2026-04-23 19:54 | 49.04891 | 7.00482 | 20869 ft | 399 kts | 139° |
| 2026-04-23 19:54 | 49.02724 | 7.03098 | 21495 ft | 401 kts | 139° |
| 2026-04-23 19:54 | 49.00533 | 7.05740 | 22127 ft | 403 kts | 139° |
| 2026-04-23 19:55 | 48.98322 | 7.08404 | 22760 ft | 406 kts | 139° |
| 2026-04-23 19:55 | 48.96122 | 7.11050 | 23388 ft | 409 kts | 139° |
| 2026-04-23 19:55 | 48.93864 | 7.13764 | 24030 ft | 412 kts | 138° |
| 2026-04-23 19:55 | 48.91612 | 7.16465 | 24693 ft | 414 kts | 139° |
| 2026-04-23 19:56 | 48.89360 | 7.19164 | 25406 ft | 415 kts | 139° |
| 2026-04-23 19:56 | 48.87074 | 7.21900 | 26122 ft | 416 kts | 139° |
| 2026-04-23 19:56 | 48.84808 | 7.24609 | 26833 ft | 416 kts | 139° |
| 2026-04-23 19:56 | 48.82511 | 7.27351 | 27550 ft | 416 kts | 138° |
| 2026-04-23 19:57 | 48.80215 | 7.30088 | 28264 ft | 415 kts | 138° |
| 2026-04-23 19:57 | 48.77958 | 7.32775 | 28965 ft | 413 kts | 138° |
| 2026-04-23 19:57 | 48.75692 | 7.35470 | 29671 ft | 411 kts | 138° |
| 2026-04-23 19:57 | 48.73419 | 7.38171 | 30177 ft | 414 kts | 138° |
| 2026-04-23 19:58 | 48.71139 | 7.40878 | 30554 ft | 418 kts | 138° |
| 2026-04-23 19:58 | 48.68840 | 7.43604 | 30928 ft | 422 kts | 138° |
| 2026-04-23 19:58 | 48.66544 | 7.46323 | 31300 ft | 425 kts | 138° |
| 2026-04-23 19:58 | 48.64193 | 7.49102 | 31679 ft | 426 kts | 138° |
| 2026-04-23 19:59 | 48.61856 | 7.51864 | 32059 ft | 427 kts | 138° |
| 2026-04-23 19:59 | 48.59537 | 7.54598 | 32436 ft | 427 kts | 138° |
| 2026-04-23 19:59 | 48.57192 | 7.57361 | 32815 ft | 426 kts | 138° |
| 2026-04-23 19:59 | 48.54856 | 7.60110 | 33195 ft | 425 kts | 138° |
| 2026-04-23 20:00 | 48.52526 | 7.62847 | 33573 ft | 424 kts | 138° |
| 2026-04-23 20:00 | 48.50197 | 7.65599 | 33953 ft | 422 kts | 137° |
| 2026-04-23 20:00 | 48.48072 | 7.68560 | 34332 ft | 418 kts | 130° |
| 2026-04-23 20:00 | 48.46235 | 7.71894 | 34720 ft | 414 kts | 123° |
| 2026-04-23 20:01 | 48.44707 | 7.75553 | 35099 ft | 412 kts | 116° |
| 2026-04-23 20:01 | 48.43513 | 7.79449 | 35478 ft | 410 kts | 110° |
| 2026-04-23 20:01 | 48.42653 | 7.83533 | 35856 ft | 408 kts | 103° |
| 2026-04-23 20:01 | 48.42119 | 7.87694 | 36295 ft | 405 kts | 98° |
| 2026-04-23 20:02 | 48.41716 | 7.91848 | 36794 ft | 402 kts | 97° |
| 2026-04-23 20:02 | 48.41311 | 7.95989 | 37221 ft | 399 kts | 97° |
| 2026-04-23 20:02 | 48.40905 | 8.00124 | 37288 ft | 405 kts | 97° |
| 2026-04-23 20:03 | 48.40066 | 8.08605 | 37276 ft | 417 kts | 97° |
| 2026-04-23 20:03 | 48.39197 | 8.17314 | 37276 ft | 427 kts | 97° |
| 2026-04-23 20:04 | 48.38304 | 8.26194 | 37274 ft | 433 kts | 97° |
| 2026-04-23 20:04 | 48.37398 | 8.35118 | 37270 ft | 435 kts | 97° |
| 2026-04-23 20:05 | 48.36483 | 8.44058 | 37270 ft | 433 kts | 97° |
| 2026-04-23 20:05 | 48.35558 | 8.53031 | 37273 ft | 432 kts | 97° |
| 2026-04-23 20:06 | 48.34638 | 8.61877 | 37274 ft | 432 kts | 97° |
| 2026-04-23 20:06 | 48.33697 | 8.70857 | 37273 ft | 432 kts | 98° |
| 2026-04-23 20:07 | 48.32762 | 8.79702 | 37276 ft | 433 kts | 97° |
| 2026-04-23 20:07 | 48.31815 | 8.88607 | 37281 ft | 432 kts | 97° |
| 2026-04-23 20:08 | 48.30864 | 8.97474 | 37283 ft | 432 kts | 97° |
| 2026-04-23 20:08 | 48.29901 | 9.06391 | 37283 ft | 432 kts | 97° |
| 2026-04-23 20:09 | 48.28933 | 9.15282 | 37284 ft | 432 kts | 97° |
| 2026-04-23 20:09 | 48.27958 | 9.24173 | 37282 ft | 432 kts | 97° |
| 2026-04-23 20:10 | 48.27148 | 9.31504 | 37282 ft | 432 kts | 97° |
| 2026-04-23 20:10 | 48.25305 | 9.41594 | 37281 ft | 435 kts | 110° |
| 2026-04-23 20:11 | 48.22248 | 9.49447 | 37282 ft | 441 kts | 123° |
| 2026-04-23 20:11 | 48.17912 | 9.56036 | 37282 ft | 448 kts | 134° |
| 2026-04-23 20:12 | 48.13209 | 9.62115 | 37281 ft | 448 kts | 134° |
| 2026-04-23 20:12 | 48.08499 | 9.68196 | 37281 ft | 448 kts | 135° |
| 2026-04-23 20:13 | 48.03757 | 9.74300 | 37279 ft | 449 kts | 135° |
| 2026-04-23 20:13 | 47.99052 | 9.80340 | 37281 ft | 449 kts | 135° |
| 2026-04-23 20:14 | 47.94301 | 9.86422 | 37282 ft | 449 kts | 135° |
| 2026-04-23 20:14 | 47.89589 | 9.92441 | 37279 ft | 449 kts | 135° |
| 2026-04-23 20:15 | 47.85064 | 9.98783 | 37277 ft | 443 kts | 126° |
| 2026-04-23 20:15 | 47.81736 | 10.06391 | 37275 ft | 436 kts | 112° |
| 2026-04-23 20:16 | 47.79134 | 10.14533 | 37281 ft | 436 kts | 111° |
| 2026-04-23 20:16 | 47.76532 | 10.22663 | 37289 ft | 436 kts | 111° |
| 2026-04-23 20:17 | 47.73930 | 10.30768 | 37293 ft | 437 kts | 111° |
| 2026-04-23 20:17 | 47.71322 | 10.38860 | 37292 ft | 437 kts | 111° |
| 2026-04-23 20:18 | 47.68694 | 10.46987 | 37309 ft | 437 kts | 111° |
| 2026-04-23 20:18 | 47.66070 | 10.55077 | 37315 ft | 437 kts | 111° |
| 2026-04-23 20:19 | 47.63428 | 10.63197 | 37317 ft | 437 kts | 111° |
| 2026-04-23 20:19 | 47.60791 | 10.71273 | 37328 ft | 438 kts | 111° |
| 2026-04-23 20:20 | 47.58136 | 10.79380 | 37334 ft | 438 kts | 111° |
| 2026-04-23 20:20 | 47.55484 | 10.87451 | 37344 ft | 438 kts | 111° |
| 2026-04-23 20:21 | 47.52815 | 10.95548 | 37345 ft | 439 kts | 111° |
| 2026-04-23 20:21 | 47.50136 | 11.03649 | 37338 ft | 438 kts | 111° |
| 2026-04-23 20:22 | 47.47443 | 11.11766 | 37352 ft | 437 kts | 111° |
| 2026-04-23 20:22 | 47.44772 | 11.19794 | 37349 ft | 438 kts | 111° |
| 2026-04-23 20:23 | 47.42081 | 11.27856 | 37321 ft | 438 kts | 111° |
| 2026-04-23 20:23 | 47.39393 | 11.35882 | 37344 ft | 438 kts | 111° |
| 2026-04-23 20:24 | 47.36698 | 11.43906 | 37333 ft | 438 kts | 111° |
| 2026-04-23 20:24 | 47.33997 | 11.51923 | 37321 ft | 439 kts | 111° |
| 2026-04-23 20:25 | 47.31286 | 11.59944 | 37333 ft | 438 kts | 111° |
| 2026-04-23 20:25 | 47.28562 | 11.67980 | 37322 ft | 439 kts | 112° |
| 2026-04-23 20:26 | 47.25815 | 11.76059 | 37301 ft | 439 kts | 112° |
| 2026-04-23 20:26 | 47.23080 | 11.84076 | 37304 ft | 439 kts | 112° |
| 2026-04-23 20:27 | 47.20251 | 11.91958 | 37296 ft | 443 kts | 116° |
| 2026-04-23 20:27 | 47.16967 | 11.99629 | 37288 ft | 443 kts | 117° |
| 2026-04-23 20:28 | 47.13682 | 12.07287 | 37301 ft | 442 kts | 117° |
| 2026-04-23 20:28 | 47.10409 | 12.14903 | 37297 ft | 442 kts | 117° |
| 2026-04-23 20:29 | 47.07113 | 12.22556 | 37288 ft | 442 kts | 117° |
| 2026-04-23 20:29 | 47.03848 | 12.30121 | 37284 ft | 442 kts | 117° |
| 2026-04-23 20:30 | 47.00567 | 12.37704 | 37279 ft | 442 kts | 117° |
| 2026-04-23 20:30 | 46.95641 | 12.49055 | 37319 ft | 442 kts | 117° |
| 2026-04-23 20:31 | 46.92332 | 12.56653 | 37299 ft | 443 kts | 117° |
| 2026-04-23 20:31 | 46.89019 | 12.64242 | 37265 ft | 443 kts | 117° |
| 2026-04-23 20:32 | 46.85696 | 12.71834 | 37254 ft | 442 kts | 117° |
| 2026-04-23 20:32 | 46.82386 | 12.79376 | 37254 ft | 443 kts | 117° |
| 2026-04-23 20:33 | 46.79064 | 12.86924 | 37251 ft | 443 kts | 117° |
| 2026-04-23 20:33 | 46.75720 | 12.94503 | 37295 ft | 444 kts | 117° |
| 2026-04-23 20:34 | 46.72382 | 13.02047 | 37299 ft | 444 kts | 117° |
| 2026-04-23 20:34 | 46.69038 | 13.09587 | 37271 ft | 445 kts | 117° |
| 2026-04-23 20:35 | 46.65667 | 13.17162 | 37257 ft | 445 kts | 117° |
| 2026-04-23 20:35 | 46.62321 | 13.24663 | 37259 ft | 444 kts | 117° |
| 2026-04-23 20:36 | 46.58969 | 13.32158 | 37254 ft | 444 kts | 117° |
| 2026-04-23 20:36 | 46.55551 | 13.39635 | 37237 ft | 446 kts | 119° |
| 2026-04-23 20:37 | 46.53717 | 13.43312 | 36881 ft | 447 kts | 120° |
| 2026-04-23 20:37 | 46.51900 | 13.46943 | 37112 ft | 444 kts | 120° |
| 2026-04-23 20:37 | 46.48253 | 13.54231 | 37276 ft | 449 kts | 120° |
| 2026-04-23 20:38 | 46.44587 | 13.61537 | 37242 ft | 453 kts | 120° |
| 2026-04-23 20:38 | 46.40873 | 13.68917 | 37215 ft | 452 kts | 120° |
| 2026-04-23 20:39 | 46.37196 | 13.76207 | 37213 ft | 452 kts | 120° |
| 2026-04-23 20:39 | 46.33505 | 13.83506 | 37209 ft | 451 kts | 120° |
| 2026-04-23 20:40 | 46.29803 | 13.90808 | 37210 ft | 451 kts | 120° |
| 2026-04-23 20:40 | 46.26080 | 13.98134 | 37204 ft | 452 kts | 120° |
| 2026-04-23 20:41 | 46.22358 | 14.05439 | 37180 ft | 452 kts | 120° |
| 2026-04-23 20:41 | 46.18637 | 14.12724 | 37166 ft | 452 kts | 120° |
| 2026-04-23 20:42 | 46.14908 | 14.20005 | 37157 ft | 453 kts | 120° |
| 2026-04-23 20:42 | 46.11163 | 14.27299 | 37156 ft | 453 kts | 120° |
| 2026-04-23 20:43 | 46.07422 | 14.34567 | 37157 ft | 453 kts | 120° |
| 2026-04-23 20:43 | 46.03667 | 14.41841 | 37157 ft | 453 kts | 120° |
| 2026-04-23 20:44 | 45.99915 | 14.49093 | 37151 ft | 453 kts | 120° |
| 2026-04-23 20:44 | 45.96169 | 14.56313 | 37162 ft | 453 kts | 120° |
| 2026-04-23 20:45 | 45.92415 | 14.63531 | 37158 ft | 453 kts | 120° |
| 2026-04-23 20:45 | 45.88618 | 14.70813 | 37157 ft | 454 kts | 121° |
| 2026-04-23 20:46 | 45.84829 | 14.78062 | 37146 ft | 454 kts | 121° |
| 2026-04-23 20:46 | 45.81043 | 14.85286 | 37160 ft | 455 kts | 121° |
| 2026-04-23 20:47 | 45.77241 | 14.92522 | 37154 ft | 455 kts | 121° |
| 2026-04-23 20:47 | 45.73453 | 14.99712 | 37161 ft | 455 kts | 121° |
| 2026-04-23 20:48 | 45.69621 | 15.06967 | 37159 ft | 455 kts | 121° |
| 2026-04-23 20:48 | 45.65806 | 15.14170 | 37153 ft | 456 kts | 121° |
| 2026-04-23 20:49 | 45.61984 | 15.21369 | 37165 ft | 456 kts | 122° |
| 2026-04-23 20:49 | 45.58129 | 15.28521 | 37152 ft | 459 kts | 125° |
| 2026-04-23 20:50 | 45.53405 | 15.34832 | 37159 ft | 466 kts | 134° |
| 2026-04-23 20:50 | 45.48515 | 15.40835 | 37151 ft | 467 kts | 133° |
| 2026-04-23 20:51 | 45.43578 | 15.46881 | 37164 ft | 467 kts | 134° |
| 2026-04-23 20:51 | 45.38652 | 15.52900 | 37147 ft | 468 kts | 134° |
| 2026-04-23 20:52 | 45.33727 | 15.58902 | 37158 ft | 468 kts | 134° |
| 2026-04-23 20:52 | 45.28807 | 15.64885 | 37155 ft | 468 kts | 134° |
| 2026-04-23 20:53 | 45.23837 | 15.70910 | 37155 ft | 469 kts | 135° |
| 2026-04-23 20:53 | 45.18874 | 15.76905 | 37155 ft | 470 kts | 135° |
| 2026-04-23 20:54 | 45.13900 | 15.82902 | 37157 ft | 470 kts | 135° |
| 2026-04-23 20:54 | 45.08915 | 15.88912 | 37155 ft | 470 kts | 135° |
| 2026-04-23 20:55 | 45.03957 | 15.94873 | 37148 ft | 470 kts | 135° |
| 2026-04-23 20:55 | 44.98961 | 16.00865 | 37153 ft | 471 kts | 135° |
| 2026-04-23 20:56 | 44.93956 | 16.06852 | 37160 ft | 471 kts | 135° |
| 2026-04-23 20:56 | 44.91450 | 16.09845 | 36984 ft | 474 kts | 135° |
| 2026-04-23 20:56 | 44.88952 | 16.12824 | 36465 ft | 471 kts | 135° |
| 2026-04-23 20:57 | 44.86453 | 16.15799 | 36033 ft | 466 kts | 135° |
| 2026-04-23 20:57 | 44.83977 | 16.18743 | 35550 ft | 464 kts | 135° |
| 2026-04-23 20:57 | 44.81509 | 16.21675 | 35041 ft | 462 kts | 135° |
| 2026-04-23 20:57 | 44.79065 | 16.24577 | 34523 ft | 461 kts | 135° |
| 2026-04-23 20:58 | 44.76630 | 16.27463 | 34004 ft | 461 kts | 135° |
| 2026-04-23 20:58 | 44.74168 | 16.30380 | 33509 ft | 461 kts | 135° |
| 2026-04-23 20:58 | 44.71722 | 16.33273 | 32996 ft | 462 kts | 135° |
| 2026-04-23 20:58 | 44.69260 | 16.36184 | 32497 ft | 464 kts | 135° |
| 2026-04-23 20:59 | 44.66781 | 16.39112 | 31969 ft | 465 kts | 135° |
| 2026-04-23 20:59 | 44.64312 | 16.42023 | 31460 ft | 467 kts | 135° |
| 2026-04-23 20:59 | 44.61795 | 16.44986 | 30930 ft | 469 kts | 135° |
| 2026-04-23 20:59 | 44.59307 | 16.47914 | 30431 ft | 469 kts | 135° |
| 2026-04-23 21:00 | 44.56820 | 16.50835 | 29900 ft | 467 kts | 136° |
| 2026-04-23 21:00 | 44.54324 | 16.53762 | 29391 ft | 464 kts | 136° |
| 2026-04-23 21:00 | 44.51884 | 16.56620 | 28876 ft | 461 kts | 136° |
| 2026-04-23 21:00 | 44.49441 | 16.59480 | 28378 ft | 457 kts | 136° |
| 2026-04-23 21:01 | 44.46992 | 16.62343 | 27868 ft | 454 kts | 136° |
| 2026-04-23 21:01 | 44.44592 | 16.65146 | 27361 ft | 451 kts | 137° |
| 2026-04-23 21:01 | 44.42178 | 16.67961 | 26870 ft | 447 kts | 137° |
| 2026-04-23 21:01 | 44.39785 | 16.70750 | 26372 ft | 445 kts | 137° |
| 2026-04-23 21:02 | 44.37420 | 16.73504 | 25874 ft | 442 kts | 138° |
| 2026-04-23 21:02 | 44.35091 | 16.76233 | 25388 ft | 438 kts | 136° |
| 2026-04-23 21:02 | 44.33065 | 16.79402 | 24866 ft | 431 kts | 122° |
| 2026-04-23 21:02 | 44.31717 | 16.83084 | 24339 ft | 423 kts | 108° |
| 2026-04-23 21:03 | 44.31065 | 16.87035 | 23808 ft | 418 kts | 94° |
| 2026-04-23 21:03 | 44.31072 | 16.91052 | 23292 ft | 411 kts | 83° |
| 2026-04-23 21:03 | 44.31372 | 16.95002 | 22870 ft | 409 kts | 82° |
| 2026-04-23 21:03 | 44.31670 | 16.98938 | 22429 ft | 408 kts | 82° |
| 2026-04-23 21:04 | 44.31960 | 17.02836 | 21983 ft | 406 kts | 82° |
| 2026-04-23 21:04 | 44.32251 | 17.06763 | 21526 ft | 403 kts | 82° |
| 2026-04-23 21:04 | 44.32534 | 17.10608 | 21083 ft | 400 kts | 82° |
| 2026-04-23 21:04 | 44.32816 | 17.14454 | 20641 ft | 397 kts | 82° |
| 2026-04-23 21:05 | 44.33094 | 17.18287 | 20198 ft | 394 kts | 82° |
| 2026-04-23 21:05 | 44.33364 | 17.22026 | 19767 ft | 391 kts | 82° |
| 2026-04-23 21:05 | 44.33637 | 17.25810 | 19328 ft | 388 kts | 82° |
| 2026-04-23 21:05 | 44.33903 | 17.29534 | 18909 ft | 384 kts | 82° |
| 2026-04-23 21:06 | 44.34165 | 17.33221 | 18491 ft | 382 kts | 82° |
| 2026-04-23 21:06 | 44.34427 | 17.36918 | 18068 ft | 379 kts | 82° |
| 2026-04-23 21:06 | 44.34682 | 17.40549 | 17665 ft | 376 kts | 82° |
| 2026-04-23 21:06 | 44.34935 | 17.44165 | 17242 ft | 373 kts | 81° |
| 2026-04-23 21:07 | 44.35183 | 17.47719 | 16832 ft | 371 kts | 81° |
| 2026-04-23 21:07 | 44.35431 | 17.51297 | 16428 ft | 368 kts | 81° |
| 2026-04-23 21:07 | 44.35674 | 17.54823 | 16017 ft | 365 kts | 81° |
| 2026-04-23 21:07 | 44.35915 | 17.58336 | 15617 ft | 362 kts | 81° |
| 2026-04-23 21:08 | 44.36154 | 17.61830 | 15217 ft | 359 kts | 81° |
| 2026-04-23 21:08 | 44.36386 | 17.65250 | 14826 ft | 357 kts | 81° |
| 2026-04-23 21:08 | 44.36562 | 17.68716 | 14427 ft | 357 kts | 87° |
| 2026-04-23 21:08 | 44.36218 | 17.72155 | 13976 ft | 361 kts | 101° |
| 2026-04-23 21:09 | 44.35199 | 17.75391 | 13552 ft | 364 kts | 117° |
| 2026-04-23 21:09 | 44.33574 | 17.78100 | 13053 ft | 366 kts | 134° |
| 2026-04-23 21:09 | 44.31450 | 17.80042 | 12556 ft | 364 kts | 148° |
| 2026-04-23 21:09 | 44.29256 | 17.81612 | 12200 ft | 353 kts | 148° |
| 2026-04-23 21:10 | 44.27102 | 17.83165 | 11812 ft | 344 kts | 148° |
| 2026-04-23 21:10 | 44.24990 | 17.84688 | 11432 ft | 336 kts | 148° |
| 2026-04-23 21:10 | 44.22933 | 17.86170 | 11067 ft | 329 kts | 148° |
| 2026-04-23 21:10 | 44.20925 | 17.87614 | 10706 ft | 324 kts | 147° |
| 2026-04-23 21:11 | 44.18923 | 17.89054 | 10351 ft | 318 kts | 147° |
| 2026-04-23 21:11 | 44.16985 | 17.90446 | 10001 ft | 313 kts | 147° |
| 2026-04-23 21:11 | 44.15041 | 17.91844 | 9458 ft | 316 kts | 147° |
| 2026-04-23 21:11 | 44.13118 | 17.93222 | 9204 ft | 307 kts | 147° |
| 2026-04-23 21:12 | 44.11218 | 17.94584 | 8833 ft | 307 kts | 147° |
| 2026-04-23 21:12 | 44.09299 | 17.95960 | 8501 ft | 306 kts | 147° |
| 2026-04-23 21:12 | 44.07428 | 17.97299 | 8158 ft | 306 kts | 147° |
| 2026-04-23 21:12 | 44.05549 | 17.98642 | 7827 ft | 301 kts | 148° |
| 2026-04-23 21:13 | 44.03693 | 17.99967 | 7493 ft | 296 kts | 148° |
| 2026-04-23 21:13 | 44.01877 | 18.01224 | 7173 ft | 292 kts | 153° |
| 2026-04-23 21:13 | 43.99969 | 18.02181 | 6826 ft | 291 kts | 158° |
| 2026-04-23 21:13 | 43.98042 | 18.03081 | 6430 ft | 290 kts | 158° |
| 2026-04-23 21:14 | 43.96139 | 18.03974 | 6037 ft | 288 kts | 159° |
| 2026-04-23 21:14 | 43.94257 | 18.04890 | 5671 ft | 283 kts | 153° |
| 2026-04-23 21:14 | 43.92688 | 18.06390 | 5424 ft | 267 kts | 128° |
| 2026-04-23 21:14 | 43.91659 | 18.08479 | 5396 ft | 265 kts | 112° |
| 2026-04-23 21:15 | 43.90818 | 18.10739 | 5169 ft | 264 kts | 112° |
| 2026-04-23 21:15 | 43.89999 | 18.12941 | 4794 ft | 257 kts | 113° |
| 2026-04-23 21:15 | 43.89179 | 18.15139 | 4475 ft | 246 kts | 112° |
| 2026-04-23 21:15 | 43.88422 | 18.17171 | 4148 ft | 230 kts | 113° |
| 2026-04-23 21:16 | 43.87714 | 18.19066 | 3822 ft | 213 kts | 114° |
| 2026-04-23 21:16 | 43.87068 | 18.20798 | 3492 ft | 188 kts | 114° |
| 2026-04-23 21:16 | 43.86531 | 18.22229 | 3314 ft | 153 kts | 115° |
| 2026-04-23 21:16 | 43.86053 | 18.23517 | 3102 ft | 147 kts | 114° |
| 2026-04-23 21:17 | 43.85596 | 18.24751 | 2853 ft | 140 kts | 115° |
| 2026-04-23 21:17 | 43.85154 | 18.25944 | 2658 ft | 138 kts | 115° |
| 2026-04-23 21:17 | 43.84717 | 18.27118 | 2463 ft | 137 kts | 115° |
| 2026-04-23 21:17 | 43.84288 | 18.28286 | 2260 ft | 136 kts | 115° |
| 2026-04-23 21:18 | 43.83860 | 18.29440 | 2072 ft | 135 kts | 116° |
| 2026-04-23 21:18 | 43.83421 | 18.30596 | 1878 ft | 134 kts | 116° |
| 2026-04-23 21:18 | 43.82992 | 18.31733 | 1681 ft | 133 kts | 116° |
| 2026-04-23 21:18 | 43.82590 | 18.32808 | 1643 ft | 107 kts | 116° |
| 2026-04-23 21:19 | 43.82338 | 18.33469 | 1652 ft | 50 kts | 117° |
| 2026-04-23 21:19 | 43.82231 | 18.33758 | 1657 ft | 23 kts | 116° |
| 2026-04-23 21:19 | 43.82225 | 18.33776 | 1657 ft | 15 kts | 116° |
| 2026-04-23 21:19 | 43.82199 | 18.33845 | 1659 ft | 4 kts | 117° |
| 2026-04-23 21:20 | 43.82206 | 18.33828 | 1659 ft | 3 kts | 163° |
| 2026-04-23 21:20 | 43.82225 | 18.33814 | 1658 ft | 2 kts | 49° |
| 2026-04-23 21:20 | 43.82228 | 18.33814 | 1658 ft | 3 kts | 5° |
| 2026-04-23 21:20 | 43.82252 | 18.33768 | 1657 ft | 6 kts | 295° |
| 2026-04-23 21:21 | 43.82293 | 18.33691 | 1655 ft | 14 kts | 329° |
| 2026-04-23 21:21 | 43.82400 | 18.33647 | 1654 ft | 17 kts | 343° |
| 2026-04-23 21:21 | 43.82436 | 18.33681 | 1654 ft | 9 kts | 111° |
| 2026-04-23 21:21 | 43.82407 | 18.33761 | 1655 ft | 9 kts | 116° |
| 2026-04-23 21:22 | 43.82396 | 18.33807 | 1656 ft | 2 kts | 58° |
| 2026-04-23 21:22 | 43.82406 | 18.33802 | 1656 ft | 2 kts | 281° |
| 2026-04-23 21:22 | 43.82422 | 18.33743 | 1655 ft | 11 kts | 348° |
| 2026-04-23 21:22 | 43.82466 | 18.33780 | 1655 ft | 5 kts | 30° |
| 2026-04-23 21:23 | 43.82480 | 18.33791 | 1655 ft | 2 kts | 27° |
| 2026-04-23 21:23 | 43.82486 | 18.33796 | 1655 ft | 0 kts | 28° |